createdAt,value
2018-11-04T00:00:27.410Z,30.10
2018-11-04T00:02:55.382Z,33.53
2018-11-04T00:05:25.251Z,33.60
2018-11-04T00:07:55.788Z,33.37
2018-11-04T00:10:25.973Z,31.87
2018-11-04T00:12:56.931Z,34.60
2018-11-04T00:18:43.337Z,30.90
2018-11-04T00:21:11.703Z,33.67
2018-11-04T00:23:39.650Z,32.93
2018-11-04T00:26:07.668Z,32.43
2018-11-04T00:28:37.046Z,37.07
2018-11-04T00:31:05.520Z,32.23
2018-11-04T00:33:34.166Z,29.80
2018-11-04T00:36:02.251Z,32.30
2018-11-04T00:38:30.172Z,31.43
2018-11-04T00:41:01.517Z,30.60
2018-11-04T00:43:30.009Z,31.33
2018-11-04T00:45:59.979Z,27.50
2018-11-04T00:48:28.038Z,29.17
2018-11-04T00:50:58.126Z,29.77
2018-11-04T00:53:26.745Z,28.30
2018-11-04T00:55:55.959Z,35.93
2018-11-04T00:58:25.677Z,31.43
2018-11-04T01:01:18.167Z,41.07
2018-11-04T01:03:47.771Z,35.57
2018-11-04T01:06:18.927Z,29.43
2018-11-04T01:08:47.967Z,33.13
2018-11-04T01:11:15.912Z,32.10
2018-11-04T01:13:45.598Z,31.20
2018-11-04T01:16:16.036Z,28.63
2018-11-04T01:18:43.988Z,31.70
2018-11-04T01:21:12.587Z,28.07
2018-11-04T01:23:41.809Z,29.13
2018-11-04T01:26:13.055Z,26.47
2018-11-04T01:28:40.992Z,29.37
2018-11-04T01:31:09.191Z,28.27
2018-11-04T01:33:39.493Z,26.60
2018-11-04T01:36:07.424Z,27.57
2018-11-04T01:38:35.959Z,24.67
2018-11-04T01:41:04.624Z,30.10
2018-11-04T01:43:37.236Z,31.00
2018-11-04T01:46:06.391Z,30.23
2018-11-04T01:48:35.620Z,29.67
2018-11-04T01:51:05.575Z,26.70
2018-11-04T01:53:35.152Z,30.53
2018-11-04T01:56:03.126Z,28.23
2018-11-04T01:58:31.305Z,30.07
2018-11-04T02:01:01.594Z,29.83
2018-11-04T02:03:30.250Z,36.30
2018-11-04T02:05:58.194Z,29.13
2018-11-04T02:08:28.466Z,28.93
2018-11-04T02:11:06.701Z,30.70
2018-11-04T02:13:35.404Z,29.77
2018-11-04T02:16:06.533Z,29.97
2018-11-04T02:18:37.496Z,26.37
2018-11-04T02:21:06.161Z,27.53
2018-11-04T02:23:37.749Z,29.30
2018-11-04T02:26:07.501Z,27.30
2018-11-04T02:28:38.904Z,29.60
2018-11-04T02:31:07.193Z,28.40
2018-11-04T02:33:36.343Z,27.83
2018-11-04T02:36:04.403Z,29.57
2018-11-04T02:38:32.377Z,29.33
2018-11-04T02:41:07.012Z,29.93
2018-11-04T02:43:35.885Z,27.60
2018-11-04T02:46:15.112Z,27.93
2018-11-04T02:48:45.041Z,27.23
2018-11-04T02:56:11.736Z,29.43
2018-11-04T02:58:39.688Z,33.37
2018-11-04T03:01:07.667Z,33.70
2018-11-04T03:03:35.703Z,31.63
2018-11-04T03:06:04.091Z,29.87
2018-11-04T03:08:32.079Z,28.93
2018-11-04T03:11:00.128Z,28.13
2018-11-04T03:13:28.040Z,31.47
2018-11-04T03:15:55.926Z,31.83
2018-11-04T03:18:25.302Z,30.63
2018-11-04T03:20:56.752Z,32.97
2018-11-04T03:23:26.552Z,29.27
2018-11-04T03:25:55.630Z,30.70
2018-11-04T03:28:26.971Z,29.13
2018-11-04T03:30:57.237Z,32.10
2018-11-04T03:33:27.323Z,30.90
2018-11-04T03:35:56.142Z,27.07
2018-11-04T03:38:26.520Z,30.13
2018-11-04T03:40:59.057Z,34.00
2018-11-04T03:43:32.595Z,27.93
2018-11-04T03:46:00.925Z,31.43
2018-11-04T03:48:31.406Z,30.33
2018-11-04T03:51:11.272Z,33.17
2018-11-04T03:53:39.906Z,30.37
2018-11-04T03:56:09.994Z,30.83
2018-11-04T03:58:40.054Z,30.87
2018-11-04T04:01:10.045Z,28.23
2018-11-04T04:03:48.027Z,32.37
2018-11-04T04:06:18.974Z,29.30
2018-11-04T04:08:54.724Z,27.70
2018-11-04T04:11:26.705Z,31.63
2018-11-04T04:13:57.210Z,26.97
2018-11-04T04:16:30.553Z,30.33
2018-11-04T04:19:05.762Z,28.97
2018-11-04T04:21:37.789Z,27.37
2018-11-04T04:24:10.706Z,33.17
2018-11-04T04:26:42.350Z,30.73
2018-11-04T04:29:13.996Z,32.30
2018-11-04T04:31:41.947Z,32.77
2018-11-04T04:34:11.516Z,33.97
2018-11-04T04:36:40.330Z,28.47
2018-11-04T04:39:11.062Z,29.83
2018-11-04T04:41:39.103Z,28.57
2018-11-04T04:44:07.803Z,30.97
2018-11-04T04:46:37.558Z,32.33
2018-11-04T04:49:05.434Z,32.43
2018-11-04T04:51:34.264Z,27.87
2018-11-04T04:54:03.105Z,29.13
2018-11-04T04:56:32.688Z,28.67
2018-11-04T04:59:01.090Z,31.53
2018-11-04T05:01:30.182Z,31.33
2018-11-04T05:04:01.425Z,30.93
2018-11-04T05:06:32.589Z,33.30
2018-11-04T05:09:01.087Z,28.47
2018-11-04T05:11:34.699Z,33.17
2018-11-04T05:14:02.637Z,32.77
2018-11-04T05:16:31.621Z,34.20
2018-11-04T05:19:00.038Z,29.03
2018-11-04T05:21:28.048Z,28.77
2018-11-04T05:23:57.120Z,29.73
2018-11-04T05:26:25.830Z,31.37
2018-11-04T05:32:10.773Z,28.23
2018-11-04T05:34:47.323Z,32.07
2018-11-04T05:37:16.699Z,30.33
2018-11-04T05:39:45.613Z,31.03
2018-11-04T05:42:13.588Z,32.93
2018-11-04T05:44:41.824Z,34.77
2018-11-04T05:47:09.768Z,30.80
2018-11-04T05:49:38.671Z,30.43
2018-11-04T05:52:06.593Z,30.17
2018-11-04T05:54:34.792Z,29.73
2018-11-04T05:57:02.692Z,30.63
2018-11-04T05:59:30.699Z,34.53
2018-11-04T06:02:01.572Z,27.37
2018-11-04T06:04:29.875Z,29.33
2018-11-04T06:06:59.582Z,33.90
2018-11-04T06:09:28.278Z,31.87
2018-11-04T06:11:57.137Z,32.07
2018-11-04T06:14:47.755Z,27.33
2018-11-04T06:17:15.692Z,27.50
2018-11-04T06:19:43.556Z,32.73
2018-11-04T06:22:20.113Z,29.47
2018-11-04T06:24:47.936Z,31.53
2018-11-04T06:27:15.802Z,33.83
2018-11-04T06:29:43.702Z,33.40
2018-11-04T06:32:12.051Z,32.77
2018-11-04T06:34:40.791Z,33.60
2018-11-04T06:37:09.750Z,34.43
2018-11-04T06:39:37.672Z,33.50
2018-11-04T06:42:05.774Z,37.47
2018-11-04T06:44:34.716Z,37.37
2018-11-04T06:47:02.812Z,31.93
2018-11-04T06:49:38.731Z,34.47
2018-11-04T06:52:10.103Z,36.07
2018-11-04T06:54:47.939Z,33.53
2018-11-04T06:57:15.925Z,35.50
2018-11-04T06:59:43.902Z,35.93
2018-11-04T07:02:11.785Z,34.37
2018-11-04T07:04:41.322Z,38.97
2018-11-04T07:07:09.492Z,37.97
2018-11-04T07:09:38.184Z,36.30
2018-11-04T07:12:06.268Z,35.40
2018-11-04T07:14:35.233Z,38.03
2018-11-04T07:17:06.592Z,35.17
2018-11-04T07:19:34.694Z,34.13
2018-11-04T07:22:04.007Z,37.70
2018-11-04T07:24:32.897Z,37.47
2018-11-04T07:27:00.853Z,34.93
2018-11-04T07:29:32.453Z,36.00
2018-11-04T07:32:04.622Z,36.40
2018-11-04T07:34:32.821Z,34.93
2018-11-04T07:37:06.166Z,33.10
2018-11-04T07:39:34.226Z,34.13
2018-11-04T07:42:02.283Z,39.27
2018-11-04T07:44:33.449Z,34.20
2018-11-04T07:47:02.274Z,33.37
2018-11-04T07:49:30.687Z,36.80
2018-11-04T07:51:59.131Z,37.73
2018-11-04T07:54:27.284Z,34.93
2018-11-04T07:56:55.432Z,38.17
2018-11-04T07:59:23.445Z,36.67
2018-11-04T08:01:51.377Z,39.60
2018-11-04T08:04:21.020Z,50.23
2018-11-04T08:06:53.991Z,42.77
2018-11-04T08:09:30.367Z,39.07
2018-11-04T08:11:58.813Z,41.20
2018-11-04T08:14:26.905Z,37.83
2018-11-04T08:16:58.984Z,42.00
2018-11-04T08:19:26.931Z,40.30
2018-11-04T08:21:55.304Z,39.53
2018-11-04T08:24:24.358Z,40.83
2018-11-04T08:26:54.347Z,42.00
2018-11-04T08:29:23.156Z,38.47
2018-11-04T08:32:23.793Z,40.90
2018-11-04T08:34:53.026Z,40.87
2018-11-04T08:37:26.328Z,40.40
2018-11-04T08:40:36.985Z,39.57
2018-11-04T08:46:27.220Z,35.57
2018-11-04T08:49:29.683Z,34.07
2018-11-04T08:52:22.158Z,37.37
2018-11-04T08:54:50.086Z,38.57
2018-11-04T08:57:20.176Z,37.13
2018-11-04T09:00:01.841Z,45.30
2018-11-04T09:02:30.842Z,37.70
2018-11-04T09:04:59.956Z,37.13
2018-11-04T09:07:38.886Z,39.07
2018-11-04T09:10:11.173Z,39.23
2018-11-04T09:13:07.520Z,38.63
2018-11-04T09:18:31.814Z,34.70
2018-11-04T09:21:01.283Z,37.80
2018-11-04T09:23:29.308Z,38.87
2018-11-04T09:25:58.912Z,43.13
2018-11-04T09:28:29.924Z,38.77
2018-11-04T09:31:00.834Z,38.27
2018-11-04T09:33:28.759Z,37.77
2018-11-04T09:35:58.619Z,39.20
2018-11-04T09:38:30.213Z,38.23
2018-11-04T09:40:58.500Z,35.50
2018-11-04T09:43:27.812Z,39.90
2018-11-04T09:45:56.392Z,37.77
2018-11-04T09:48:41.226Z,37.43
2018-11-04T09:51:52.511Z,34.37
2018-11-04T09:54:39.643Z,33.60
2018-11-04T09:57:08.548Z,39.57
2018-11-04T09:59:37.640Z,39.47
2018-11-04T10:02:05.572Z,37.30
2018-11-04T10:04:52.673Z,34.57
2018-11-04T10:07:43.172Z,32.33
2018-11-04T10:10:14.373Z,38.33
2018-11-04T10:12:44.776Z,33.83
2018-11-04T10:15:38.811Z,32.07
2018-11-04T10:18:21.869Z,39.80
2018-11-04T10:23:45.456Z,35.93
2018-11-04T10:26:19.626Z,36.73
2018-11-04T10:28:55.581Z,36.13
2018-11-04T10:31:24.044Z,36.13
2018-11-04T10:34:01.174Z,37.47
2018-11-04T10:36:38.330Z,32.97
2018-11-04T10:39:09.243Z,33.03
2018-11-04T10:41:38.651Z,36.97
2018-11-04T10:44:07.852Z,36.20
2018-11-04T10:46:37.268Z,32.10
2018-11-04T10:49:08.107Z,35.83
2018-11-04T10:51:50.406Z,33.20
2018-11-04T10:54:28.423Z,34.30
2018-11-04T10:56:59.048Z,37.57
2018-11-04T10:59:28.738Z,33.37
2018-11-04T11:01:58.916Z,31.40
2018-11-04T11:04:52.067Z,31.77
2018-11-04T11:07:21.418Z,32.73
2018-11-04T11:09:51.747Z,33.20
2018-11-04T11:12:21.028Z,31.37
2018-11-04T11:14:52.475Z,30.80
2018-11-04T11:17:27.274Z,30.07
2018-11-04T11:20:20.654Z,31.03
2018-11-04T11:22:54.078Z,32.40
2018-11-04T11:28:24.808Z,32.27
2018-11-04T11:30:54.172Z,31.20
2018-11-04T11:33:23.005Z,30.30
2018-11-04T11:35:52.327Z,32.40
2018-11-04T11:38:43.038Z,32.10
2018-11-04T11:41:41.418Z,30.73
2018-11-04T11:44:09.770Z,28.70
2018-11-04T11:46:37.666Z,29.57
2018-11-04T11:49:12.692Z,29.63
2018-11-04T11:54:21.774Z,29.47
2018-11-04T11:56:51.047Z,29.97
2018-11-04T11:59:36.107Z,29.20
2018-11-04T12:02:04.866Z,31.87
2018-11-04T12:04:37.748Z,30.40
2018-11-04T12:07:10.235Z,33.63
2018-11-04T12:09:39.164Z,31.70
2018-11-04T12:12:19.117Z,27.20
2018-11-04T12:14:54.019Z,29.80
2018-11-04T12:17:31.499Z,26.83
2018-11-04T12:20:19.469Z,29.33
2018-11-04T12:26:17.450Z,28.17
2018-11-04T12:28:52.437Z,26.37
2018-11-04T12:32:03.725Z,26.00
2018-11-04T12:34:52.699Z,24.67
2018-11-04T12:37:50.270Z,22.97
2018-11-04T12:40:18.320Z,22.47
2018-11-04T12:42:54.964Z,22.50
2018-11-04T12:45:23.673Z,17.13
2018-11-04T12:47:54.184Z,16.23
2018-11-04T12:50:33.373Z,9.20
2018-11-04T12:53:04.793Z,9.20
2018-11-04T12:58:42.443Z,10.93
2018-11-04T13:01:25.189Z,9.90
2018-11-04T13:03:55.019Z,10.73
2018-11-04T13:06:24.031Z,9.00
2018-11-04T13:08:53.214Z,11.17
2018-11-04T13:11:37.336Z,10.97
2018-11-04T13:14:18.024Z,10.33
2018-11-04T13:16:47.663Z,10.50
2018-11-04T13:19:19.748Z,9.83
2018-11-04T13:22:23.552Z,10.47
2018-11-04T13:25:21.960Z,9.33
2018-11-04T13:28:05.591Z,8.00
2018-11-04T13:30:38.086Z,9.30
2018-11-04T13:33:06.052Z,9.90
2018-11-04T13:36:02.019Z,9.57
2018-11-04T13:38:56.337Z,12.17
2018-11-04T13:41:24.742Z,9.03
2018-11-04T13:46:53.834Z,14.57
2018-11-04T13:49:24.066Z,12.43
2018-11-04T13:51:52.409Z,11.10
2018-11-04T13:54:21.807Z,11.08
2018-11-04T13:56:51.941Z,11.83
2018-11-04T13:59:30.744Z,9.13
2018-11-04T14:02:09.336Z,9.30
2018-11-04T14:04:41.860Z,11.00
2018-11-04T14:07:10.577Z,11.07
2018-11-04T14:09:44.342Z,14.43
2018-11-04T14:12:16.373Z,13.93
2018-11-04T14:14:57.257Z,11.50
2018-11-04T14:17:46.593Z,11.40
2018-11-04T14:20:38.141Z,14.80
2018-11-04T14:23:09.071Z,10.50
2018-11-04T14:25:40.306Z,11.80
2018-11-04T14:30:43.808Z,11.40
2018-11-04T14:33:14.136Z,12.53
2018-11-04T14:35:43.529Z,10.70
2018-11-04T14:38:12.670Z,13.33
2018-11-04T14:40:43.515Z,13.53
2018-11-04T14:46:24.379Z,12.53
2018-11-04T14:48:52.409Z,12.60
2018-11-04T14:51:21.195Z,15.03
2018-11-04T14:53:50.573Z,12.73
2018-11-04T14:56:27.215Z,18.67
2018-11-04T14:59:07.473Z,11.00
2018-11-04T15:01:37.206Z,11.53
2018-11-04T15:04:11.357Z,12.47
2018-11-04T15:07:04.570Z,12.40
2018-11-04T15:09:40.537Z,9.77
2018-11-04T15:12:15.719Z,12.87
2018-11-04T15:14:44.002Z,11.30
2018-11-04T15:17:13.504Z,10.13
2018-11-04T15:19:48.543Z,11.07
2018-11-04T15:22:27.600Z,10.47
2018-11-04T15:25:07.265Z,9.60
2018-11-04T15:27:48.602Z,10.87
2018-11-04T15:30:26.524Z,14.03
2018-11-04T15:33:03.701Z,10.30
2018-11-04T15:35:34.627Z,9.80
2018-11-04T15:40:47.902Z,9.87
2018-11-04T15:43:26.349Z,12.37
2018-11-04T15:46:03.547Z,16.10
2018-11-04T15:48:38.963Z,12.70
2018-11-04T15:51:12.348Z,10.07
2018-11-04T15:53:48.378Z,13.03
2018-11-04T15:56:27.535Z,11.20
2018-11-04T15:58:59.784Z,11.47
2018-11-04T16:01:46.392Z,13.97
2018-11-04T16:04:20.857Z,11.40
2018-11-04T16:06:51.801Z,11.27
2018-11-04T16:09:24.151Z,12.83
2018-11-04T16:11:57.739Z,11.23
2018-11-04T16:14:33.489Z,12.37
2018-11-04T16:17:11.988Z,10.03
2018-11-04T16:20:01.712Z,9.73
2018-11-04T16:22:56.704Z,10.63
2018-11-04T16:25:30.838Z,11.20
2018-11-04T16:28:01.798Z,10.63
2018-11-04T16:31:12.458Z,10.50
2018-11-04T16:33:48.874Z,10.30
2018-11-04T16:36:17.075Z,10.87
2018-11-04T16:38:46.201Z,11.23
2018-11-04T16:41:15.241Z,11.20
2018-11-04T16:43:44.493Z,11.53
2018-11-04T16:46:19.271Z,9.73
2018-11-04T16:48:47.493Z,10.40
2018-11-04T16:51:18.132Z,9.87
2018-11-04T16:53:57.639Z,9.70
2018-11-04T16:56:27.360Z,8.60
2018-11-04T16:58:55.515Z,11.40
2018-11-04T17:01:26.527Z,10.13
2018-11-04T17:03:54.870Z,9.33
2018-11-04T17:06:23.145Z,7.53
2018-11-04T17:08:52.335Z,7.10
2018-11-04T17:11:20.613Z,8.70
2018-11-04T17:13:49.419Z,11.63
2018-11-04T17:16:18.093Z,9.70
2018-11-04T17:18:47.265Z,10.83
2018-11-04T17:21:15.791Z,10.20
2018-11-04T17:23:46.627Z,9.63
2018-11-04T17:26:17.203Z,9.40
2018-11-04T17:28:47.744Z,8.93
2018-11-04T17:31:17.786Z,8.40
2018-11-04T17:33:48.217Z,9.60
2018-11-04T17:36:19.454Z,9.60
2018-11-04T17:38:49.534Z,9.77
2018-11-04T17:41:18.386Z,12.57
2018-11-04T17:43:49.312Z,11.07
2018-11-04T17:46:20.224Z,11.23
2018-11-04T17:48:54.545Z,10.87
2018-11-04T17:51:23.823Z,9.70
2018-11-04T17:53:55.083Z,11.13
2018-11-04T17:56:24.343Z,11.87
2018-11-04T17:59:00.303Z,10.40
2018-11-04T18:01:31.563Z,10.03
2018-11-04T18:04:02.094Z,9.23
2018-11-04T18:06:31.983Z,11.23
2018-11-04T18:09:03.385Z,11.57
2018-11-04T18:11:35.893Z,10.40
2018-11-04T18:14:04.630Z,11.77
2018-11-04T18:16:34.178Z,10.37
2018-11-04T18:19:04.260Z,9.57
2018-11-04T18:21:34.072Z,10.50
2018-11-04T18:24:05.829Z,11.73
2018-11-04T18:26:39.506Z,11.43
2018-11-04T18:29:12.040Z,12.23
2018-11-04T18:31:44.326Z,10.77
2018-11-04T18:34:13.632Z,12.30
2018-11-04T18:36:43.869Z,18.37
2018-11-04T18:39:11.972Z,10.23
2018-11-04T18:41:40.085Z,10.47
2018-11-04T18:44:09.541Z,12.30
2018-11-04T18:46:38.799Z,15.63
2018-11-04T18:49:07.682Z,21.57
2018-11-04T18:51:38.008Z,13.07
2018-11-04T18:54:10.506Z,10.80
2018-11-04T18:56:39.562Z,13.57
2018-11-04T18:59:09.261Z,13.30
2018-11-04T19:01:39.275Z,14.53
2018-11-04T19:04:09.029Z,21.13
2018-11-04T19:06:39.234Z,12.17
2018-11-04T19:09:08.339Z,11.47
2018-11-04T19:11:39.854Z,11.70
2018-11-04T19:17:00.640Z,10.43
2018-11-04T19:19:29.539Z,11.60
2018-11-04T19:21:58.397Z,10.10
2018-11-04T19:24:27.475Z,10.13
2018-11-04T19:26:58.884Z,11.43
2018-11-04T19:29:30.368Z,11.77
2018-11-04T19:32:02.181Z,10.50
2018-11-04T19:34:34.679Z,11.17
2018-11-04T19:37:04.829Z,12.77
2018-11-04T19:39:36.717Z,9.70
2018-11-04T19:42:07.189Z,14.73
2018-11-04T19:44:39.548Z,10.88
2018-11-04T19:47:11.008Z,8.60
2018-11-04T19:49:41.088Z,9.23
2018-11-04T19:52:09.429Z,10.77
2018-11-04T19:54:40.836Z,8.77
2018-11-04T19:57:12.242Z,8.80
2018-11-04T19:59:41.923Z,10.30
2018-11-04T20:02:13.568Z,10.43
2018-11-04T20:04:41.675Z,11.53
2018-11-04T20:09:50.912Z,9.17
2018-11-04T20:12:28.001Z,11.83
2018-11-04T20:14:59.270Z,9.93
2018-11-04T20:17:27.577Z,10.40
2018-11-04T20:20:03.604Z,10.10
2018-11-04T20:22:39.064Z,10.30
2018-11-04T20:25:14.503Z,9.80
2018-11-04T20:27:45.910Z,9.63
2018-11-04T20:30:16.287Z,14.43
2018-11-04T20:32:49.845Z,10.37
2018-11-04T20:35:19.878Z,9.63
2018-11-04T20:37:50.672Z,10.60
2018-11-04T20:40:25.542Z,11.83
2018-11-04T20:43:04.343Z,10.60
2018-11-04T20:45:32.489Z,11.27
2018-11-04T20:48:06.703Z,12.47
2018-11-04T20:50:49.787Z,11.97
2018-11-04T20:53:18.277Z,11.63
2018-11-04T20:55:52.205Z,12.73
2018-11-04T20:58:21.311Z,12.93
2018-11-04T21:00:56.522Z,14.43
2018-11-04T21:03:24.735Z,14.40
2018-11-04T21:05:52.975Z,11.30
2018-11-04T21:08:28.654Z,13.07
2018-11-04T21:10:59.147Z,13.80
2018-11-04T21:13:27.973Z,13.00
2018-11-04T21:15:56.742Z,11.80
2018-11-04T21:18:29.287Z,14.03
2018-11-04T21:20:58.933Z,13.57
2018-11-04T21:23:33.635Z,13.37
2018-11-04T21:26:02.515Z,11.30
2018-11-04T21:28:33.244Z,12.67
2018-11-04T21:31:03.442Z,12.47
2018-11-04T21:33:31.524Z,12.00
2018-11-04T21:36:02.474Z,10.83
2018-11-04T21:38:30.557Z,10.73
2018-11-04T21:41:00.249Z,12.07
2018-11-04T21:43:28.836Z,14.87
2018-11-04T21:45:56.782Z,14.80
2018-11-04T21:48:26.055Z,13.57
2018-11-04T21:50:54.408Z,13.10
2018-11-04T21:53:30.733Z,15.03
2018-11-04T21:55:58.910Z,12.03
2018-11-04T21:58:28.470Z,14.50
2018-11-04T22:01:01.026Z,11.80
2018-11-04T22:03:29.342Z,12.80
2018-11-04T22:05:58.982Z,11.63
2018-11-04T22:08:28.672Z,15.37
2018-11-04T22:11:00.957Z,15.37
2018-11-04T22:13:36.349Z,11.97
2018-11-04T22:16:05.851Z,15.10
2018-11-04T22:18:36.794Z,12.93
2018-11-04T22:21:05.752Z,13.47
2018-11-04T22:23:39.191Z,13.10
2018-11-04T22:26:08.898Z,15.03
2018-11-04T22:28:42.962Z,14.93
2018-11-04T22:31:15.725Z,17.50
2018-11-04T22:33:43.948Z,15.90
2018-11-04T22:36:12.971Z,16.00
2018-11-04T22:38:43.582Z,14.70
2018-11-04T22:41:12.918Z,14.53
2018-11-04T22:43:42.558Z,15.03
2018-11-04T22:46:11.750Z,23.00
2018-11-04T22:48:41.516Z,13.67
2018-11-04T22:51:11.850Z,12.90
2018-11-04T22:53:41.306Z,15.23
2018-11-04T22:56:10.569Z,14.83
2018-11-04T22:58:38.703Z,14.43
2018-11-04T23:01:07.046Z,13.83
2018-11-04T23:03:37.271Z,16.00
2018-11-04T23:06:06.598Z,17.23
2018-11-04T23:08:36.111Z,14.00
2018-11-04T23:11:04.426Z,15.80
2018-11-04T23:13:33.182Z,13.73
2018-11-04T23:16:01.445Z,16.77
2018-11-04T23:18:30.671Z,13.53
2018-11-04T23:20:58.762Z,14.20
2018-11-04T23:23:29.976Z,15.67
2018-11-04T23:25:58.083Z,15.87
2018-11-04T23:28:31.561Z,14.70
2018-11-04T23:30:59.580Z,16.00
2018-11-04T23:33:27.692Z,14.70
2018-11-04T23:35:57.350Z,14.40
2018-11-04T23:38:26.311Z,13.63
2018-11-04T23:40:54.473Z,16.07
2018-11-04T23:43:23.816Z,17.80
2018-11-04T23:45:52.754Z,15.13
2018-11-04T23:48:20.870Z,14.93
2018-11-04T23:50:49.640Z,15.27
2018-11-04T23:53:18.036Z,14.87
2018-11-04T23:55:54.468Z,13.80
2018-11-04T23:58:22.658Z,14.83
